Time;durP1;ratioP1;P1;durP2;ratioP2;P2;SDS_P1;SDS_P2;PMS_P1;PMS_P2;Temp;Humidity;BMP_temperature;BMP_pressure;BME280_temperature;BME280_humidity;BME280_pressure;Samples;Min_cycle;Max_cycle;Signal;HPM_P1;HPM_P2
2023/09/16 00:02:15;;;;;;;15.00;11.50;;;;;;;18.69;67.40;101306.73;105475;1253;63819;-56
2023/09/16 00:04:45;;;;;;;15.90;11.60;;;;;;;18.69;67.27;101310.27;106119;1252;60554;-60
2023/09/16 00:07:13;;;;;;;14.80;11.60;;;;;;;18.66;67.36;101311.33;105313;1257;60426;-63
2023/09/16 00:09:41;;;;;;;16.50;11.40;;;;;;;18.61;67.38;101313.02;107042;1252;63983;-63
2023/09/16 00:12:10;;;;;;;16.40;11.10;;;;;;;18.59;67.58;101317.86;105280;1257;61500;-61
2023/09/16 00:14:38;;;;;;;13.10;9.50;;;;;;;18.60;67.76;101319.01;105318;1253;62445;-62
2023/09/16 00:17:05;;;;;;;17.00;11.20;;;;;;;18.64;68.04;101319.00;105275;1253;60608;-63
2023/09/16 00:19:33;;;;;;;15.00;11.90;;;;;;;18.65;67.82;101318.63;105266;1252;60510;-64
2023/09/16 00:22:00;;;;;;;15.30;11.60;;;;;;;18.64;67.78;101320.20;105228;1255;66107;-63
2023/09/16 00:24:29;;;;;;;16.10;12.00;;;;;;;18.59;67.57;101323.02;105363;1258;61583;-64
2023/09/16 00:26:56;;;;;;;17.10;11.90;;;;;;;18.55;67.68;101323.75;105409;1253;63702;-58
2023/09/16 00:29:24;;;;;;;15.90;11.50;;;;;;;18.53;67.83;101324.84;105357;1253;60451;-59
2023/09/16 00:31:52;;;;;;;19.10;12.80;;;;;;;18.54;68.27;101321.69;105261;1259;60361;-60
2023/09/16 00:34:19;;;;;;;19.50;12.90;;;;;;;18.56;68.10;101327.58;106897;1253;63712;-59
2023/09/16 00:36:47;;;;;;;16.20;11.90;;;;;;;18.52;68.21;101326.16;105458;1258;60341;-58
2023/09/16 00:39:15;;;;;;;16.70;10.70;;;;;;;18.48;68.24;101328.21;105193;1256;63691;-58
2023/09/16 00:41:43;;;;;;;17.70;12.50;;;;;;;18.45;68.28;101332.20;105224;1254;60553;-58
2023/09/16 00:44:10;;;;;;;17.70;10.70;;;;;;;18.46;68.66;101337.27;105350;1254;60578;-58
2023/09/16 00:46:38;;;;;;;17.50;12.50;;;;;;;18.50;68.65;101338.86;105457;1253;63787;-59
2023/09/16 00:49:06;;;;;;;18.00;13.10;;;;;;;18.54;68.48;101337.88;105631;1252;60547;-59
2023/09/16 00:51:34;;;;;;;17.10;11.30;;;;;;;18.55;68.37;101340.92;105305;1253;63723;-58
2023/09/16 00:54:01;;;;;;;17.60;12.30;;;;;;;18.54;68.43;101343.77;105244;1255;60571;-58
2023/09/16 00:56:29;;;;;;;16.90;12.30;;;;;;;18.51;68.30;101344.62;105127;1258;60836;-61
2023/09/16 00:58:57;;;;;;;15.90;11.40;;;;;;;18.51;68.32;101352.11;105171;1258;63725;-59
2023/09/16 01:01:25;;;;;;;15.60;11.00;;;;;;;18.52;68.23;101353.04;105750;1258;60451;-59
2023/09/16 01:03:53;;;;;;;16.40;11.80;;;;;;;18.51;68.19;101354.73;106756;1253;62596;-63
2023/09/16 01:06:21;;;;;;;18.50;11.60;;;;;;;18.50;68.59;101359.77;107712;1253;60480;-59
2023/09/16 01:08:48;;;;;;;16.10;11.00;;;;;;;18.50;68.59;101362.83;105336;1256;60557;-59
2023/09/16 01:11:16;;;;;;;16.60;11.00;;;;;;;18.47;68.54;101360.95;105209;1253;64925;-58
2023/09/16 01:13:47;;;;;;;16.70;11.00;;;;;;;18.48;68.61;101363.23;105392;1253;61381;-58
2023/09/16 01:16:21;;;;;;;14.90;10.70;;;;;;;18.51;68.71;101366.23;105193;1253;75279;-59
2023/09/16 01:18:51;;;;;;;19.00;13.00;;;;;;;18.54;68.75;101368.60;105157;1254;60560;-59
2023/09/16 01:21:22;;;;;;;16.20;11.30;;;;;;;18.55;68.58;101368.88;106059;1257;60425;-59
2023/09/16 01:24:16;;;;;;;15.40;11.60;;;;;;;18.53;68.56;101371.08;105170;1253;63745;-57
2023/09/16 01:26:45;;;;;;;15.40;11.50;;;;;;;18.50;68.69;101372.35;105443;1259;60464;-59
2023/09/16 01:29:14;;;;;;;18.70;12.30;;;;;;;18.51;68.44;101373.73;105482;1254;66538;-59
2023/09/16 01:31:42;;;;;;;17.20;11.70;;;;;;;18.50;68.34;101377.36;107074;1255;60534;-58
2023/09/16 01:34:29;;;;;;;16.50;12.10;;;;;;;18.50;68.41;101375.80;105517;1253;61099;-58
2023/09/16 01:36:58;;;;;;;21.60;14.40;;;;;;;18.51;68.45;101374.83;106106;1253;63628;-59
2023/09/16 01:39:27;;;;;;;21.90;13.60;;;;;;;18.50;68.49;101374.55;105867;1253;72264;-59
2023/09/16 01:41:55;;;;;;;17.80;11.70;;;;;;;18.50;68.81;101374.77;105900;1252;62851;-58
2023/09/16 01:44:24;;;;;;;19.40;13.70;;;;;;;18.51;68.62;101380.96;105225;1253;60591;-56
2023/09/16 01:46:55;;;;;;;21.30;13.60;;;;;;;18.56;68.60;101380.73;105328;1257;60348;-55
2023/09/16 01:49:23;;;;;;;21.20;13.50;;;;;;;18.58;68.51;101382.42;106877;1251;63802;-57
2023/09/16 01:51:51;;;;;;;25.00;14.90;;;;;;;18.58;68.62;101383.66;105311;1256;60432;-58
2023/09/16 01:54:19;;;;;;;21.80;15.00;;;;;;;18.55;68.65;101386.80;105286;1259;64204;-58
2023/09/16 01:56:47;;;;;;;21.90;14.10;;;;;;;18.49;68.70;101391.80;105278;1258;60650;-58
2023/09/16 01:59:14;;;;;;;18.40;14.20;;;;;;;18.46;68.88;101396.39;105223;1259;60371;-60
2023/09/16 02:01:43;;;;;;;20.70;14.30;;;;;;;18.45;68.83;101396.58;105094;1253;64922;-58
2023/09/16 02:04:11;;;;;;;22.30;14.60;;;;;;;18.45;68.80;101397.44;105306;1257;61637;-58
2023/09/16 02:06:41;;;;;;;21.70;15.10;;;;;;;18.44;68.84;101397.39;105230;1258;63758;-57
2023/09/16 02:09:09;;;;;;;22.20;15.10;;;;;;;18.41;69.09;101401.05;105427;1259;60512;-59
2023/09/16 02:11:37;;;;;;;22.60;14.90;;;;;;;18.39;69.20;101402.43;105381;1257;60587;-57
2023/09/16 02:14:08;;;;;;;20.90;15.00;;;;;;;18.38;68.96;101401.39;105388;1259;63624;-58
2023/09/16 02:16:37;;;;;;;20.00;13.60;;;;;;;18.39;69.06;101403.30;105521;1258;60429;-60
2023/09/16 02:19:05;;;;;;;20.40;14.70;;;;;;;18.41;69.00;101400.45;105422;1253;63733;-59
2023/09/16 02:21:33;;;;;;;22.60;15.20;;;;;;;18.44;69.04;101402.72;105612;1253;60561;-58
2023/09/16 02:24:01;;;;;;;22.10;15.80;;;;;;;18.44;69.14;101402.33;105377;1253;60352;-59
2023/09/16 02:26:28;;;;;;;21.40;13.90;;;;;;;18.40;68.73;101402.81;105201;1253;67447;-58
2023/09/16 02:28:56;;;;;;;22.90;14.20;;;;;;;18.37;68.79;101406.88;105400;1257;60482;-58
2023/09/16 02:31:27;;;;;;;20.60;14.80;;;;;;;18.40;68.90;101409.11;105974;1256;63752;-60
2023/09/16 02:33:58;;;;;;;22.70;14.60;;;;;;;18.42;68.94;101411.73;105384;1257;60425;-60
2023/09/16 02:36:26;;;;;;;22.70;15.20;;;;;;;18.43;69.06;101410.78;105940;1258;60390;-58
2023/09/16 02:38:54;;;;;;;20.50;14.60;;;;;;;18.43;69.05;101415.52;105294;1259;63699;-57
2023/09/16 02:41:21;;;;;;;20.40;14.80;;;;;;;18.45;68.97;101416.66;105257;1259;62818;-59
2023/09/16 02:43:49;;;;;;;16.80;12.90;;;;;;;18.47;68.89;101419.10;105335;1253;65514;-58
2023/09/16 02:46:17;;;;;;;20.60;14.50;;;;;;;18.47;68.83;101423.02;106102;1256;60578;-61
2023/09/16 02:48:44;;;;;;;20.30;13.10;;;;;;;18.46;68.67;101421.98;105210;1254;60416;-59
2023/09/16 02:51:12;;;;;;;20.50;14.20;;;;;;;18.46;68.69;101419.57;105640;1253;63751;-59
2023/09/16 02:53:40;;;;;;;21.00;14.30;;;;;;;18.43;68.78;101419.30;105288;1254;61555;-60
2023/09/16 02:56:09;;;;;;;18.00;14.20;;;;;;;18.42;68.96;101418.55;105466;1254;63889;-59
2023/09/16 02:58:37;;;;;;;19.30;14.80;;;;;;;18.41;68.93;101417.20;105247;1257;60446;-59
2023/09/16 03:01:10;;;;;;;18.90;13.20;;;;;;;18.42;68.98;101419.00;105266;1254;60586;-58
2023/09/16 03:03:40;;;;;;;18.00;13.70;;;;;;;18.44;68.85;101423.45;105201;1253;66009;-59
2023/09/16 03:06:08;;;;;;;17.70;13.40;;;;;;;18.46;68.97;101428.97;105169;1256;61403;-58
2023/09/16 03:08:36;;;;;;;18.00;14.70;;;;;;;18.49;68.96;101428.86;105141;1262;73067;-59
2023/09/16 03:11:05;;;;;;;19.90;14.20;;;;;;;18.49;68.99;101432.56;105615;1259;60507;-59
2023/09/16 03:13:34;;;;;;;19.10;14.30;;;;;;;18.49;69.07;101433.27;105562;1253;61799;-59
2023/09/16 03:16:21;;;;;;;16.50;12.50;;;;;;;18.52;68.78;101436.00;105386;1253;64955;-63
2023/09/16 03:18:52;;;;;;;17.60;13.30;;;;;;;18.56;68.49;101437.14;105230;1259;61489;-58
2023/09/16 03:21:23;;;;;;;17.80;14.00;;;;;;;18.59;68.32;101442.45;106780;1252;62437;-59
2023/09/16 03:23:53;;;;;;;19.00;14.60;;;;;;;18.61;68.18;101444.50;105863;1253;60616;-60
2023/09/16 03:26:21;;;;;;;17.20;14.60;;;;;;;18.61;68.15;101443.32;105283;1257;60358;-59
2023/09/16 03:28:52;;;;;;;18.20;14.30;;;;;;;18.58;67.96;101446.95;105225;1257;65473;-59
2023/09/16 03:31:22;;;;;;;18.10;14.20;;;;;;;18.57;68.00;101449.91;105162;1261;61518;-59
2023/09/16 03:33:50;;;;;;;16.10;12.40;;;;;;;18.56;67.95;101452.43;105978;1258;62504;-58
2023/09/16 03:36:18;;;;;;;17.50;14.00;;;;;;;18.59;68.08;101453.33;105361;1253;60550;-59
2023/09/16 03:38:47;;;;;;;22.10;14.50;;;;;;;18.58;68.09;101454.77;105301;1257;60371;-60
2023/09/16 03:41:16;;;;;;;18.70;14.50;;;;;;;18.55;68.02;101456.83;105191;1257;63636;-61
2023/09/16 03:43:52;;;;;;;16.50;13.10;;;;;;;18.52;68.08;101455.83;106060;1257;60423;-60
2023/09/16 03:46:23;;;;;;;18.60;13.20;;;;;;;18.54;67.80;101457.61;105351;1260;74865;-59
2023/09/16 03:48:52;;;;;;;16.10;12.80;;;;;;;18.56;67.88;101459.27;106074;1258;60556;-60
2023/09/16 03:51:21;;;;;;;15.30;12.80;;;;;;;18.57;67.68;101465.50;105098;1258;60757;-57
2023/09/16 03:53:50;;;;;;;19.60;15.00;;;;;;;18.56;67.91;101467.90;109261;1257;64858;-58
2023/09/16 03:56:17;;;;;;;23.10;15.80;;;;;;;18.56;68.02;101470.77;106308;1257;61347;-60
2023/09/16 03:58:45;;;;;;;17.90;13.90;;;;;;;18.53;67.97;101471.45;105381;1254;63682;-59
2023/09/16 04:01:13;;;;;;;18.30;13.60;;;;;;;18.51;68.02;101469.54;105241;1260;60435;-59
2023/09/16 04:03:42;;;;;;;18.40;13.60;;;;;;;18.51;68.10;101473.80;105023;1254;60636;-61
2023/09/16 04:06:10;;;;;;;18.50;14.30;;;;;;;18.51;68.14;101475.40;105776;1256;65425;-61
2023/09/16 04:08:37;;;;;;;18.70;15.20;;;;;;;18.49;68.32;101476.84;105310;1253;65501;-60
2023/09/16 04:11:09;;;;;;;20.10;15.70;;;;;;;18.42;68.33;101477.50;105261;1264;62498;-60
2023/09/16 04:13:37;;;;;;;18.80;14.70;;;;;;;18.34;68.65;101476.98;105654;1254;60414;-60
2023/09/16 04:16:05;;;;;;;20.90;15.10;;;;;;;18.32;68.67;101482.68;105397;1256;60645;-60
2023/09/16 04:18:34;;;;;;;19.40;14.50;;;;;;;18.32;68.65;101481.81;105147;1252;63660;-59
2023/09/16 04:21:02;;;;;;;20.30;15.40;;;;;;;18.33;68.79;101485.07;105649;1259;68334;-68
2023/09/16 04:23:31;;;;;;;18.60;14.90;;;;;;;18.37;68.87;101487.55;105617;1254;63722;-61
2023/09/16 04:26:00;;;;;;;19.50;15.80;;;;;;;18.40;68.94;101488.68;105934;1254;60377;-62
2023/09/16 04:28:29;;;;;;;20.60;16.40;;;;;;;18.41;68.82;101488.36;105649;1257;60593;-62
2023/09/16 04:30:58;;;;;;;19.80;15.20;;;;;;;18.43;68.64;101484.45;105913;1253;64878;-58
2023/09/16 04:33:32;;;;;;;18.30;14.30;;;;;;;18.45;68.48;101488.41;107221;1255;60557;-62
2023/09/16 04:36:03;;;;;;;17.60;14.20;;;;;;;18.48;68.58;101487.95;105538;1257;63726;-65
2023/09/16 04:38:32;;;;;;;20.70;15.60;;;;;;;18.53;68.63;101490.45;99124;1256;10254306;-56
2023/09/16 04:42:56;;;;;;;20.70;16.00;;;;;;;18.44;69.04;101492.36;102013;1291;600838;-56
2023/09/16 04:45:24;;;;;;;20.80;16.10;;;;;;;18.60;68.36;101494.79;104403;1271;59366;-56
2023/09/16 04:47:52;;;;;;;20.80;15.90;;;;;;;18.62;68.03;101496.72;104412;1269;59393;-57
2023/09/16 04:50:21;;;;;;;17.90;14.70;;;;;;;18.67;67.99;101494.64;105086;1272;63957;-60
2023/09/16 04:52:50;;;;;;;18.00;14.30;;;;;;;18.72;67.92;101496.58;104321;1269;61526;-57
2023/09/16 04:55:18;;;;;;;21.50;16.30;;;;;;;18.78;67.70;101495.70;104324;1266;65835;-58
2023/09/16 04:57:46;;;;;;;19.30;14.60;;;;;;;18.82;67.66;101501.15;104337;1269;356016;-59
2023/09/16 05:00:14;;;;;;;20.50;16.10;;;;;;;18.82;67.67;101501.16;104686;1264;59256;-56
2023/09/16 05:02:41;;;;;;;18.10;15.00;;;;;;;18.81;67.52;101507.33;104645;1264;62096;-55
2023/09/16 05:05:11;;;;;;;21.40;15.30;;;;;;;18.82;67.42;101507.39;104785;1268;60156;-57
2023/09/16 05:07:40;;;;;;;19.40;14.50;;;;;;;18.85;67.27;101508.71;104677;1266;62794;-59
2023/09/16 05:10:10;;;;;;;17.60;13.90;;;;;;;18.88;67.37;101507.52;104471;1266;59686;-58
2023/09/16 05:12:37;;;;;;;18.70;15.70;;;;;;;18.92;67.23;101508.75;104447;1269;59507;-57
2023/09/16 05:15:06;;;;;;;19.20;15.50;;;;;;;18.95;67.07;101511.08;104588;1269;66823;-59
2023/09/16 05:17:35;;;;;;;20.60;16.60;;;;;;;18.95;67.03;101511.26;104489;1270;60282;-58
2023/09/16 05:20:04;;;;;;;19.60;15.50;;;;;;;18.94;66.69;101511.17;106689;1268;64250;-58
2023/09/16 05:22:32;;;;;;;19.90;15.10;;;;;;;18.98;66.71;101510.11;105813;1267;59760;-58
2023/09/16 05:25:04;;;;;;;18.80;14.80;;;;;;;19.04;66.70;101512.41;104518;1266;59254;-61
2023/09/16 05:27:32;;;;;;;20.20;15.50;;;;;;;19.08;66.54;101512.66;104819;1268;64423;-62
2023/09/16 05:30:01;;;;;;;18.60;15.20;;;;;;;19.11;66.73;101518.98;104809;1266;61530;-62
2023/09/16 05:32:31;;;;;;;19.10;15.80;;;;;;;19.11;66.46;101518.26;104965;1260;63716;-59
2023/09/16 05:34:58;;;;;;;19.50;15.10;;;;;;;19.12;66.14;101521.91;108788;1263;58014;-62
2023/09/16 05:37:27;;;;;;;19.00;14.70;;;;;;;19.13;66.04;101522.38;106446;1257;59761;-61
2023/09/16 05:39:54;;;;;;;20.70;16.20;;;;;;;19.15;65.68;101526.30;106293;1262;64195;-64
2023/09/16 05:42:22;;;;;;;23.80;15.20;;;;;;;19.18;65.69;101528.33;104891;1263;61960;-57
2023/09/16 05:44:51;;;;;;;21.70;15.90;;;;;;;19.21;65.53;101530.83;108785;1256;63835;-53
2023/09/16 05:47:19;;;;;;;21.60;17.20;;;;;;;19.24;65.69;101533.36;105642;1262;59644;-61
2023/09/16 05:49:47;;;;;;;18.60;14.80;;;;;;;19.27;65.92;101533.09;104870;1263;59509;-59
2023/09/16 05:52:15;;;;;;;20.10;14.60;;;;;;;19.30;65.96;101536.16;105023;1261;64813;-64
2023/09/16 05:54:42;;;;;;;18.20;14.00;;;;;;;19.36;65.88;101533.21;104783;1256;61359;-56
2023/09/16 05:57:10;;;;;;;17.30;14.00;;;;;;;19.44;65.69;101532.80;105110;1260;64217;-56
2023/09/16 05:59:38;;;;;;;24.30;15.20;;;;;;;19.51;65.35;101537.64;104688;1262;59763;-57
2023/09/16 06:02:05;;;;;;;19.10;14.70;;;;;;;19.54;65.11;101537.67;104502;1261;59868;-59
2023/09/16 06:04:33;;;;;;;17.50;14.80;;;;;;;19.59;64.88;101538.98;104686;1258;64095;-57
2023/09/16 06:07:01;;;;;;;19.20;14.70;;;;;;;19.63;64.57;101540.33;104687;1258;61539;-57
2023/09/16 06:09:28;;;;;;;21.00;15.20;;;;;;;19.65;64.26;101542.80;104839;1257;63717;-60
2023/09/16 06:11:56;;;;;;;19.40;13.90;;;;;;;19.71;64.13;101541.82;108715;1258;57966;-58
2023/09/16 06:14:24;;;;;;;17.90;14.40;;;;;;;19.79;63.96;101545.21;106270;1263;59606;-59
2023/09/16 06:16:53;;;;;;;20.30;15.60;;;;;;;19.81;63.78;101545.10;105731;1256;64554;-60
2023/09/16 06:19:20;;;;;;;17.40;14.90;;;;;;;19.85;63.66;101548.47;106518;1256;60419;-64
2023/09/16 06:21:48;;;;;;;17.70;14.30;;;;;;;19.89;63.93;101544.70;104699;1263;63820;-60
2023/09/16 06:24:16;;;;;;;21.20;15.90;;;;;;;19.94;63.77;101549.92;108860;1258;57539;-64
2023/09/16 06:26:45;;;;;;;18.80;14.10;;;;;;;20.03;63.60;101551.99;105169;1259;59572;-65
2023/09/16 06:29:13;;;;;;;18.90;14.00;;;;;;;20.12;63.37;101550.02;105094;1257;64137;-65
2023/09/16 06:31:41;;;;;;;16.40;13.90;;;;;;;20.19;62.79;101555.38;104813;1262;70769;-66
2023/09/16 06:34:08;;;;;;;19.70;14.80;;;;;;;20.22;62.60;101556.34;105137;1263;62436;-64
2023/09/16 06:36:40;;;;;;;17.30;14.00;;;;;;;20.22;62.57;101558.95;105771;1263;59519;-64
2023/09/16 06:39:11;;;;;;;18.20;14.90;;;;;;;20.20;62.28;101560.73;104987;1262;59646;-62
2023/09/16 06:41:39;;;;;;;18.10;15.40;;;;;;;20.18;62.00;101561.02;105771;1262;64568;-59
2023/09/16 06:44:12;;;;;;;21.00;14.40;;;;;;;20.15;62.06;101564.54;106594;1258;61914;-61
2023/09/16 06:46:40;;;;;;;16.80;13.20;;;;;;;20.18;62.07;101566.91;105651;1257;62545;-62
2023/09/16 06:49:08;;;;;;;19.80;15.50;;;;;;;20.25;61.98;101570.83;107369;1263;59766;-61
2023/09/16 06:51:36;;;;;;;17.40;14.40;;;;;;;20.29;61.77;101570.08;104757;1261;59706;-63
2023/09/16 06:54:04;;;;;;;18.80;15.70;;;;;;;20.29;61.74;101573.05;104966;1262;64827;-57
2023/09/16 06:56:32;;;;;;;17.20;15.30;;;;;;;20.28;61.62;101572.80;105436;1262;60097;-62
2023/09/16 06:59:01;;;;;;;19.20;15.20;;;;;;;20.21;61.28;101577.08;105298;1262;64220;-65
2023/09/16 07:01:46;;;;;;;17.00;14.40;;;;;;;20.11;61.22;101576.55;104910;1260;59697;-63
2023/09/16 07:04:14;;;;;;;18.30;15.00;;;;;;;20.04;61.14;101579.90;104576;1262;59511;-63
2023/09/16 07:06:42;;;;;;;16.00;14.00;;;;;;;20.02;61.12;101579.86;104687;1262;72946;-59
2023/09/16 07:09:12;;;;;;;16.20;14.00;;;;;;;20.02;61.47;101578.27;104827;1257;61790;-59
2023/09/16 07:11:40;;;;;;;19.00;15.30;;;;;;;20.03;61.79;101582.10;105992;1261;63842;-57
2023/09/16 07:14:07;;;;;;;20.50;15.10;;;;;;;20.05;61.63;101584.61;104856;1258;59647;-59
2023/09/16 07:16:36;;;;;;;17.40;13.90;;;;;;;20.09;61.40;101585.77;104794;1265;59911;-60
2023/09/16 07:19:04;;;;;;;17.60;13.80;;;;;;;20.12;61.17;101589.57;104697;1261;62873;-59
2023/09/16 07:21:32;;;;;;;17.10;13.90;;;;;;;20.17;61.01;101593.68;106748;1263;62482;-54
2023/09/16 07:24:02;;;;;;;17.50;13.90;;;;;;;20.22;61.00;101595.31;104945;1263;63739;-58
2023/09/16 07:26:30;;;;;;;18.60;14.80;;;;;;;20.26;61.19;101595.67;104636;1257;59679;-58
2023/09/16 07:28:57;;;;;;;16.60;13.80;;;;;;;20.31;61.14;101599.45;104731;1263;59503;-59
2023/09/16 07:31:25;;;;;;;16.90;14.80;;;;;;;20.35;61.07;101602.73;108709;1256;64120;-59
2023/09/16 07:33:53;;;;;;;18.60;15.50;;;;;;;20.37;60.91;101600.96;108879;1257;60128;-59
2023/09/16 07:36:20;;;;;;;19.90;15.00;;;;;;;20.36;60.53;101601.62;108858;1257;62501;-59
2023/09/16 07:38:48;;;;;;;17.60;13.60;;;;;;;20.32;60.43;101600.77;108200;1261;59817;-56
2023/09/16 07:41:16;;;;;;;16.80;13.70;;;;;;;20.35;60.57;101602.89;105222;1266;59570;-63
2023/09/16 07:43:43;;;;;;;16.30;14.30;;;;;;;20.40;60.59;101603.45;104983;1262;64093;-65
2023/09/16 07:46:14;;;;;;;21.50;14.60;;;;;;;20.41;60.56;101602.63;107892;1257;60357;-61
2023/09/16 07:48:42;;;;;;;17.70;13.90;;;;;;;20.41;60.72;101603.36;105242;1261;63139;-63
2023/09/16 07:51:10;;;;;;;19.30;15.80;;;;;;;20.43;60.77;101606.35;104935;1267;59659;-64
2023/09/16 07:53:37;;;;;;;17.70;14.60;;;;;;;20.47;60.83;101604.70;105404;1258;59666;-65
2023/09/16 07:56:05;;;;;;;21.40;15.70;;;;;;;20.51;60.75;101603.96;106937;1261;62936;-67
2023/09/16 07:58:33;;;;;;;16.50;13.90;;;;;;;20.57;60.39;101606.33;105020;1261;61979;-64
2023/09/16 08:01:00;;;;;;;18.40;15.80;;;;;;;20.62;60.01;101610.14;104832;1263;62744;-66
2023/09/16 08:03:28;;;;;;;17.40;14.80;;;;;;;20.63;59.80;101612.62;104966;1261;59730;-62
2023/09/16 08:05:57;;;;;;;19.60;14.00;;;;;;;20.60;59.84;101614.06;105024;1263;59810;-60
2023/09/16 08:08:25;;;;;;;18.50;14.60;;;;;;;20.59;60.15;101616.54;105456;1263;62826;-66
2023/09/16 08:10:53;;;;;;;18.70;15.50;;;;;;;20.54;59.84;101618.28;107156;1263;69339;-61
2023/09/16 08:13:21;;;;;;;17.00;14.00;;;;;;;20.51;60.02;101620.84;104947;1262;64456;-60
2023/09/16 08:15:48;;;;;;;16.10;13.00;;;;;;;20.51;60.16;101619.49;105105;1258;59715;-62
2023/09/16 08:18:16;;;;;;;16.20;12.80;;;;;;;20.54;60.29;101617.30;104645;1263;59641;-61
2023/09/16 08:20:44;;;;;;;17.30;14.30;;;;;;;20.60;60.24;101615.11;104968;1256;62849;-62
2023/09/16 08:23:13;;;;;;;17.80;13.00;;;;;;;20.66;60.06;101616.03;104972;1260;61424;-63
2023/09/16 08:25:41;;;;;;;15.80;13.70;;;;;;;20.69;59.78;101620.96;105835;1257;63753;-62
2023/09/16 08:28:08;;;;;;;18.20;13.50;;;;;;;20.74;59.22;101618.17;105066;1260;59521;-64
2023/09/16 08:30:36;;;;;;;16.10;12.60;;;;;;;20.80;59.14;101619.17;105307;1260;62909;-63
2023/09/16 08:33:04;;;;;;;16.10;12.10;;;;;;;20.82;58.96;101619.52;104818;1261;64614;-60
2023/09/16 08:35:32;;;;;;;13.70;12.20;;;;;;;20.80;58.77;101624.33;108688;1258;61360;-64
2023/09/16 08:38:01;;;;;;;14.40;11.90;;;;;;;20.77;58.36;101629.06;107698;1261;64339;-65
2023/09/16 08:40:32;;;;;;;13.80;11.30;;;;;;;20.76;58.37;101629.73;106283;1262;59736;-60
2023/09/16 08:43:24;;;;;;;16.60;11.40;;;;;;;20.78;58.49;101631.84;105022;1257;59670;-61
2023/09/16 08:46:01;;;;;;;15.90;11.60;;;;;;;20.81;58.53;101636.16;105763;1257;63047;-61
2023/09/16 08:48:36;;;;;;;14.40;11.10;;;;;;;20.79;58.52;101637.50;105897;1257;61349;-61
2023/09/16 08:51:05;;;;;;;13.80;11.20;;;;;;;20.73;58.38;101635.96;104719;1258;63700;-60
2023/09/16 08:53:35;;;;;;;12.30;10.30;;;;;;;20.69;58.31;101633.19;104814;1257;60539;-63
2023/09/16 08:56:04;;;;;;;13.80;10.60;;;;;;;20.67;58.26;101634.39;104965;1257;60614;-62
2023/09/16 08:58:33;;;;;;;16.30;11.80;;;;;;;20.65;58.51;101629.64;108860;1258;64970;-65
2023/09/16 09:01:02;;;;;;;17.90;11.50;;;;;;;20.65;58.15;101630.06;107931;1258;61466;-66
2023/09/16 09:03:31;;;;;;;14.70;11.90;;;;;;;20.67;58.15;101635.14;104916;1261;73253;-64
2023/09/16 09:05:58;;;;;;;13.00;10.70;;;;;;;20.70;58.17;101636.98;108009;1260;60537;-66
2023/09/16 09:08:26;;;;;;;15.00;10.80;;;;;;;20.77;58.14;101638.09;105258;1257;60692;-63
2023/09/16 09:10:54;;;;;;;15.30;11.10;;;;;;;20.87;57.97;101641.08;105181;1261;65386;-66
2023/09/16 09:13:22;;;;;;;15.70;12.30;;;;;;;20.95;57.51;101638.98;104958;1261;60369;-65
2023/09/16 09:15:49;;;;;;;15.70;12.60;;;;;;;20.97;56.89;101643.40;105226;1257;63828;-65
2023/09/16 09:18:18;;;;;;;17.00;12.20;;;;;;;20.95;56.78;101644.56;105361;1258;60466;-67
2023/09/16 09:20:46;;;;;;;16.10;12.10;;;;;;;20.93;56.80;101640.79;105293;1259;60487;-59
2023/09/16 09:23:14;;;;;;;13.90;11.70;;;;;;;20.90;56.97;101643.44;104858;1260;65089;-62
2023/09/16 09:25:41;;;;;;;12.80;10.60;;;;;;;20.87;57.44;101641.41;105246;1259;61379;-59
2023/09/16 09:28:09;;;;;;;14.00;11.00;;;;;;;20.89;57.66;101641.09;105202;1260;63818;-58
2023/09/16 09:30:39;;;;;;;13.60;9.70;;;;;;;20.93;57.37;101640.78;105479;1260;59336;-61
2023/09/16 09:33:15;;;;;;;14.40;10.80;;;;;;;20.98;57.26;101640.69;105346;1261;60752;-60
2023/09/16 09:35:43;;;;;;;12.40;9.80;;;;;;;21.01;57.46;101641.45;105130;1261;66192;-60
2023/09/16 09:38:11;;;;;;;12.40;10.40;;;;;;;21.04;57.28;101644.17;105029;1260;61653;-59
2023/09/16 09:40:38;;;;;;;12.10;10.10;;;;;;;21.05;57.27;101645.88;105550;1259;63737;-59
2023/09/16 09:43:06;;;;;;;12.80;10.20;;;;;;;21.06;57.07;101645.02;105586;1258;61807;-60
2023/09/16 09:45:37;;;;;;;14.60;10.20;;;;;;;21.07;56.71;101644.79;106445;1260;60378;-60
2023/09/16 09:48:06;;;;;;;12.70;10.50;;;;;;;21.06;56.43;101643.64;105245;1260;64828;-60
2023/09/16 09:50:33;;;;;;;13.80;10.70;;;;;;;20.97;56.40;101641.98;105494;1257;61309;-61
2023/09/16 09:53:02;;;;;;;13.90;10.90;;;;;;;20.91;56.66;101640.84;106309;1260;66344;-60
2023/09/16 09:55:31;;;;;;;11.70;10.10;;;;;;;20.88;56.42;101642.55;105463;1257;60515;-60
2023/09/16 09:57:59;;;;;;;16.00;12.20;;;;;;;20.87;56.37;101643.59;105917;1258;60707;-59
2023/09/16 10:00:29;;;;;;;12.20;10.10;;;;;;;20.86;56.34;101638.73;105793;1260;65003;-65
2023/09/16 10:03:00;;;;;;;15.10;10.90;;;;;;;20.88;56.28;101639.08;105392;1260;60516;-60
2023/09/16 10:05:29;;;;;;;14.50;11.40;;;;;;;20.92;55.99;101645.05;106494;1258;65560;-64
2023/09/16 10:07:57;;;;;;;15.40;11.50;;;;;;;20.94;55.80;101644.27;105189;1260;60501;-61
2023/09/16 10:10:25;;;;;;;15.60;10.70;;;;;;;20.96;55.98;101643.77;105053;1257;60473;-62
2023/09/16 10:12:54;;;;;;;17.50;11.70;;;;;;;20.96;56.10;101641.55;104879;1256;63738;-68
2023/09/16 10:15:34;;;;;;;14.60;11.70;;;;;;;20.99;56.15;101643.08;105703;1257;61403;-64
2023/09/16 10:18:03;;;;;;;13.00;11.40;;;;;;;21.03;56.06;101641.02;104872;1261;63775;-62
2023/09/16 10:20:33;;;;;;;18.20;13.00;;;;;;;21.05;56.12;101637.15;105305;1257;60534;-59
2023/09/16 10:23:00;;;;;;;14.90;11.90;;;;;;;21.05;56.09;101637.99;105261;1256;60523;-57
2023/09/16 10:25:28;;;;;;;14.40;11.90;;;;;;;21.07;56.10;101637.99;104833;1254;63724;-58
2023/09/16 10:28:03;;;;;;;15.10;12.40;;;;;;;21.09;56.13;101638.77;107158;1260;60408;-58
2023/09/16 10:30:33;;;;;;;19.20;11.60;;;;;;;21.13;55.97;101641.05;105519;1255;63674;-57
2023/09/16 10:33:04;;;;;;;13.40;11.30;;;;;;;21.18;55.67;101638.94;105398;1258;60656;-57
2023/09/16 10:35:34;;;;;;;14.30;11.50;;;;;;;21.22;55.50;101635.67;104939;1256;60359;-56
2023/09/16 10:38:03;;;;;;;15.70;12.00;;;;;;;21.25;55.47;101639.22;105347;1258;64914;-56
2023/09/16 10:40:31;;;;;;;15.80;12.40;;;;;;;21.28;55.41;101636.23;105512;1256;61528;-58
2023/09/16 10:43:03;;;;;;;13.30;11.50;;;;;;;21.32;55.49;101637.27;105152;1257;63693;-58
2023/09/16 10:45:31;;;;;;;15.60;11.60;;;;;;;21.37;55.20;101639.31;105317;1256;60508;-57
2023/09/16 10:48:01;;;;;;;15.30;11.60;;;;;;;21.41;55.19;101637.80;105597;1257;60463;-56
2023/09/16 10:50:34;;;;;;;14.60;11.90;;;;;;;21.44;55.14;101636.56;105158;1260;64036;-57
2023/09/16 10:53:07;;;;;;;13.40;11.80;;;;;;;21.46;54.74;101631.70;105096;1258;61510;-57
2023/09/16 10:55:55;;;;;;;15.00;11.60;;;;;;;21.47;54.89;101630.71;105388;1260;63686;-56
2023/09/16 10:58:31;;;;;;;14.10;11.30;;;;;;;21.51;55.14;101626.02;105054;1257;60413;-57
2023/09/16 11:00:59;;;;;;;14.40;11.40;;;;;;;21.57;55.28;101626.64;105741;1256;59238;-59
2023/09/16 11:03:30;;;;;;;16.30;12.90;;;;;;;21.65;54.80;101628.40;105248;1257;65585;-57
2023/09/16 11:05:59;;;;;;;15.50;12.60;;;;;;;21.68;54.15;101628.27;105584;1257;61542;-55
2023/09/16 11:08:27;;;;;;;15.70;12.60;;;;;;;21.67;53.77;101629.29;105257;1256;62451;-60
2023/09/16 11:10:56;;;;;;;17.20;12.50;;;;;;;21.67;53.84;101628.42;105223;1256;61053;-59
2023/09/16 11:13:24;;;;;;;14.40;11.60;;;;;;;21.72;53.80;101626.96;105636;1255;60499;-60